createdAt,value
2022-10-05T00:00:25.901Z,7.63
2022-10-05T00:01:33.713Z,11.82
2022-10-05T00:02:32.282Z,12.77
2022-10-05T00:03:36.977Z,13.90
2022-10-05T00:04:33.663Z,12.23
2022-10-05T00:05:33.159Z,12.43
2022-10-05T00:06:30.463Z,12.65
2022-10-05T00:07:30.256Z,13.57
2022-10-05T00:08:32.217Z,14.00
2022-10-05T00:09:32.350Z,15.82
2022-10-05T00:10:29.422Z,11.40
2022-10-05T00:11:26.030Z,13.30
2022-10-05T00:12:23.559Z,15.13
2022-10-05T00:13:22.931Z,13.90
2022-10-05T00:14:30.174Z,15.32
2022-10-05T00:15:26.829Z,13.50
2022-10-05T00:16:23.431Z,10.13
2022-10-05T00:17:25.182Z,10.98
2022-10-05T00:18:21.953Z,12.05
2022-10-05T00:19:23.622Z,10.00
2022-10-05T00:20:24.622Z,12.27
2022-10-05T00:21:27.406Z,8.80
2022-10-05T00:22:30.326Z,11.05
2022-10-05T00:23:31.195Z,10.60
2022-10-05T00:24:27.867Z,9.77
2022-10-05T00:25:24.759Z,13.15
2022-10-05T00:26:32.018Z,12.68
2022-10-05T00:27:37.609Z,10.13
2022-10-05T00:28:34.249Z,9.38
2022-10-05T00:29:31.029Z,8.13
2022-10-05T00:30:33.937Z,9.40
2022-10-05T00:31:33.161Z,8.48
2022-10-05T00:32:29.823Z,7.63
2022-10-05T00:33:27.626Z,6.38
2022-10-05T00:34:24.270Z,7.00
2022-10-05T00:35:20.893Z,8.57
2022-10-05T00:36:17.915Z,11.20
2022-10-05T00:37:14.968Z,6.93
2022-10-05T00:38:11.549Z,9.13
2022-10-05T00:39:08.147Z,12.50
2022-10-05T00:40:27.962Z,10.38
2022-10-05T00:41:36.005Z,7.78
2022-10-05T00:43:00.163Z,9.20
2022-10-05T00:44:10.287Z,6.80
2022-10-05T00:45:12.186Z,10.10
2022-10-05T00:46:14.422Z,8.32
2022-10-05T00:47:34.688Z,17.52
2022-10-05T00:48:53.356Z,9.00
2022-10-05T00:49:52.655Z,10.75
2022-10-05T00:51:03.760Z,8.23
2022-10-05T00:52:37.616Z,8.40
2022-10-05T00:53:43.447Z,13.13
2022-10-05T00:54:52.524Z,10.18
2022-10-05T00:55:56.593Z,10.02
2022-10-05T00:57:16.734Z,9.60
2022-10-05T00:58:13.259Z,8.43
2022-10-05T00:59:41.573Z,9.68
2022-10-05T01:00:54.984Z,6.70
2022-10-05T01:02:20.223Z,7.53
2022-10-05T01:03:24.819Z,9.60
2022-10-05T01:04:57.742Z,13.13
2022-10-05T01:06:18.696Z,7.45
2022-10-05T01:07:25.668Z,10.65
2022-10-05T01:08:43.388Z,7.85
2022-10-05T01:10:06.118Z,10.52
2022-10-05T01:11:25.826Z,19.35
2022-10-05T01:12:44.693Z,16.15
2022-10-05T01:13:59.930Z,10.85
2022-10-05T01:15:07.005Z,10.30
2022-10-05T01:16:09.528Z,10.32
2022-10-05T01:18:31.541Z,12.32
2022-10-05T01:19:35.578Z,10.63
2022-10-05T01:21:06.376Z,13.77
2022-10-05T01:22:19.774Z,11.55
2022-10-05T01:23:30.631Z,12.05
2022-10-05T01:24:45.762Z,13.07
2022-10-05T01:26:01.234Z,10.95
2022-10-05T01:27:13.773Z,12.35
2022-10-05T01:28:15.871Z,9.88
2022-10-05T01:29:17.364Z,10.02
2022-10-05T01:30:17.423Z,12.98
2022-10-05T01:31:35.316Z,12.25
2022-10-05T01:32:39.406Z,6.90
2022-10-05T01:34:02.236Z,8.90
2022-10-05T01:35:15.135Z,6.87
2022-10-05T01:36:37.275Z,7.82
2022-10-05T01:37:48.852Z,8.27
2022-10-05T01:38:57.901Z,11.15
2022-10-05T01:40:22.031Z,10.40
2022-10-05T01:41:27.643Z,10.32
2022-10-05T01:42:52.100Z,12.27
2022-10-05T01:44:25.365Z,10.80
2022-10-05T01:45:21.887Z,12.65
2022-10-05T01:46:44.579Z,9.77
2022-10-05T01:47:46.313Z,9.75
2022-10-05T01:49:16.961Z,5.10
2022-10-05T01:50:26.974Z,7.75
2022-10-05T01:52:01.224Z,13.30
2022-10-05T01:53:13.097Z,10.20
2022-10-05T01:54:26.294Z,11.80
2022-10-05T01:55:52.463Z,9.93
2022-10-05T01:56:54.778Z,10.02
2022-10-05T01:58:07.844Z,9.80
2022-10-05T02:00:13.732Z,10.77
2022-10-05T02:01:27.103Z,7.78
2022-10-05T02:02:26.281Z,9.45
2022-10-05T02:03:31.393Z,9.25
2022-10-05T02:05:00.981Z,7.53
2022-10-05T02:05:57.413Z,10.63
2022-10-05T02:06:54.110Z,9.80
2022-10-05T02:08:31.095Z,14.57
2022-10-05T02:09:37.206Z,10.30
2022-10-05T02:10:44.553Z,10.13
2022-10-05T02:11:45.589Z,11.27
2022-10-05T02:12:44.752Z,11.43
2022-10-05T02:13:48.927Z,9.48
2022-10-05T02:14:50.927Z,9.30
2022-10-05T02:16:03.310Z,10.43
2022-10-05T02:17:05.652Z,8.52
2022-10-05T02:18:21.094Z,12.63
2022-10-05T02:19:37.207Z,10.80
2022-10-05T02:20:35.342Z,13.57
2022-10-05T02:21:34.874Z,12.40
2022-10-05T02:22:39.821Z,11.43
2022-10-05T02:23:39.759Z,10.07
2022-10-05T02:24:40.981Z,13.13
2022-10-05T02:25:43.123Z,10.73
2022-10-05T02:26:41.068Z,14.80
2022-10-05T02:27:47.572Z,12.23
2022-10-05T02:28:55.788Z,15.95
2022-10-05T02:29:56.521Z,11.10
2022-10-05T02:30:59.069Z,12.00
2022-10-05T02:33:33.307Z,12.30
2022-10-05T02:34:41.752Z,13.35
2022-10-05T02:35:38.429Z,12.68
2022-10-05T02:36:37.341Z,10.13
2022-10-05T02:37:46.440Z,8.38
2022-10-05T02:38:59.412Z,11.70
2022-10-05T02:40:08.971Z,11.38
2022-10-05T02:41:36.950Z,9.00
2022-10-05T02:43:06.537Z,15.73
2022-10-05T02:44:29.242Z,11.73
2022-10-05T02:45:50.100Z,11.90
2022-10-05T02:47:28.037Z,8.95
2022-10-05T02:48:36.432Z,7.68
2022-10-05T02:49:44.968Z,12.73
2022-10-05T02:51:04.955Z,11.55
2022-10-05T02:52:10.244Z,14.48
2022-10-05T02:53:22.643Z,15.35
2022-10-05T02:54:21.977Z,11.48
2022-10-05T02:55:25.140Z,9.15
2022-10-05T02:56:47.054Z,9.02
2022-10-05T02:58:15.017Z,11.20
2022-10-05T02:59:38.111Z,11.20
2022-10-05T03:00:42.925Z,8.73
2022-10-05T03:01:52.564Z,12.63
2022-10-05T03:02:55.906Z,10.50
2022-10-05T03:04:26.726Z,11.95
2022-10-05T03:05:33.971Z,15.73
2022-10-05T03:06:38.316Z,9.30
2022-10-05T03:07:48.447Z,12.00
2022-10-05T03:08:49.227Z,11.25
2022-10-05T03:10:00.902Z,10.20
2022-10-05T03:11:29.353Z,11.88
2022-10-05T03:12:44.899Z,10.93
2022-10-05T03:14:07.949Z,12.73
2022-10-05T03:15:28.704Z,9.43
2022-10-05T03:16:40.507Z,10.88
2022-10-05T03:17:51.995Z,9.35
2022-10-05T03:19:15.125Z,10.82
2022-10-05T03:20:22.743Z,8.20
2022-10-05T03:21:41.122Z,9.80
2022-10-05T03:22:43.697Z,10.13
2022-10-05T03:23:55.412Z,11.32
2022-10-05T03:25:09.844Z,16.35
2022-10-05T03:26:18.454Z,7.68
2022-10-05T03:27:21.038Z,11.75
2022-10-05T03:28:27.202Z,8.63
2022-10-05T03:29:26.417Z,5.47
2022-10-05T03:30:25.763Z,7.47
2022-10-05T03:31:47.756Z,11.98
2022-10-05T03:33:01.667Z,12.55
2022-10-05T03:34:10.020Z,14.02
2022-10-05T03:35:16.383Z,11.70
2022-10-05T03:36:46.694Z,11.25
2022-10-05T03:38:19.917Z,13.60
2022-10-05T03:39:19.365Z,14.07
2022-10-05T03:40:28.029Z,14.35
2022-10-05T03:41:34.636Z,13.35
2022-10-05T03:42:59.034Z,14.38
2022-10-05T03:44:04.683Z,13.98
2022-10-05T03:45:33.276Z,16.10
2022-10-05T03:47:06.727Z,19.95
2022-10-05T03:48:11.510Z,18.70
2022-10-05T03:49:16.615Z,11.00
2022-10-05T03:50:51.229Z,20.65
2022-10-05T03:52:14.043Z,12.80
2022-10-05T03:53:23.551Z,13.23
2022-10-05T03:54:41.207Z,10.90
2022-10-05T03:55:57.156Z,12.95
2022-10-05T03:56:57.584Z,9.30
2022-10-05T03:57:58.587Z,7.18
2022-10-05T03:59:15.732Z,11.35
2022-10-05T04:00:16.512Z,8.75
2022-10-05T04:01:20.465Z,11.00
2022-10-05T04:02:31.105Z,16.27
2022-10-05T04:03:44.067Z,6.97
2022-10-05T04:04:50.786Z,10.45
2022-10-05T04:05:55.630Z,11.65
2022-10-05T04:06:55.206Z,16.33
2022-10-05T04:07:54.845Z,8.98
2022-10-05T04:09:13.041Z,12.82
2022-10-05T04:10:19.193Z,7.82
2022-10-05T04:11:23.224Z,7.32
2022-10-05T04:12:27.694Z,9.88
2022-10-05T04:13:40.030Z,14.68
2022-10-05T04:14:41.454Z,12.05
2022-10-05T04:15:44.479Z,11.95
2022-10-05T04:16:46.147Z,11.02
2022-10-05T04:18:14.707Z,8.93
2022-10-05T04:19:23.232Z,14.60
2022-10-05T04:20:25.388Z,11.85
2022-10-05T04:21:30.089Z,18.23
2022-10-05T04:22:35.721Z,11.85
2022-10-05T04:23:50.548Z,16.33
2022-10-05T04:24:58.465Z,13.65
2022-10-05T04:26:02.349Z,12.95
2022-10-05T04:27:03.977Z,9.82
2022-10-05T04:28:11.537Z,16.73
2022-10-05T04:29:15.320Z,16.63
2022-10-05T04:30:19.580Z,10.93
2022-10-05T04:31:31.988Z,11.52
2022-10-05T04:32:37.485Z,11.18
2022-10-05T04:33:34.130Z,14.23
2022-10-05T04:34:50.090Z,11.55
2022-10-05T04:35:50.252Z,11.57
2022-10-05T04:36:59.839Z,8.02
2022-10-05T04:38:23.582Z,14.23
2022-10-05T04:41:02.950Z,9.27
2022-10-05T04:42:38.078Z,9.73
2022-10-05T04:43:48.850Z,8.90
2022-10-05T04:44:59.322Z,13.43
2022-10-05T04:46:05.845Z,5.32
2022-10-05T04:47:22.162Z,8.90
2022-10-05T04:48:40.700Z,9.95
2022-10-05T04:49:56.137Z,7.35
2022-10-05T04:51:08.863Z,8.70
2022-10-05T04:52:17.471Z,9.88
2022-10-05T04:53:27.027Z,7.80
2022-10-05T04:54:26.624Z,11.73
2022-10-05T04:55:35.087Z,8.18
2022-10-05T04:56:41.505Z,11.52
2022-10-05T04:57:42.048Z,11.90
2022-10-05T04:59:06.868Z,10.18
2022-10-05T05:00:23.328Z,8.02
2022-10-05T05:01:48.883Z,14.88
2022-10-05T05:03:04.601Z,9.25
2022-10-05T05:04:14.971Z,9.93
2022-10-05T05:06:16.367Z,10.35
2022-10-05T05:07:34.295Z,7.30
2022-10-05T05:08:48.900Z,6.90
2022-10-05T05:09:48.190Z,11.95
2022-10-05T05:11:22.403Z,12.70
2022-10-05T05:12:42.273Z,12.55
2022-10-05T05:13:57.811Z,8.23
2022-10-05T05:15:12.475Z,11.23
2022-10-05T05:16:35.830Z,9.18
2022-10-05T05:17:54.877Z,9.43
2022-10-05T05:19:10.518Z,6.65
2022-10-05T05:20:09.907Z,8.10
2022-10-05T05:21:21.124Z,9.80
2022-10-05T05:22:40.630Z,8.75
2022-10-05T05:23:44.460Z,7.80
2022-10-05T05:24:44.187Z,9.63
2022-10-05T05:25:57.167Z,10.07
2022-10-05T05:27:28.124Z,10.95
2022-10-05T05:28:53.321Z,7.13
2022-10-05T05:30:02.244Z,12.18
2022-10-05T05:31:37.256Z,12.50
2022-10-05T05:32:53.339Z,17.45
2022-10-05T05:34:27.584Z,10.80
2022-10-05T05:35:39.145Z,9.70
2022-10-05T05:36:47.785Z,8.73
2022-10-05T05:38:00.801Z,8.73
2022-10-05T05:39:16.292Z,9.13
2022-10-05T05:40:23.385Z,9.63
2022-10-05T05:41:32.014Z,9.00
2022-10-05T05:42:46.866Z,9.55
2022-10-05T05:44:14.902Z,7.85
2022-10-05T05:45:47.614Z,8.15
2022-10-05T05:47:03.546Z,9.60
2022-10-05T05:48:05.583Z,9.90
2022-10-05T05:49:13.874Z,8.32
2022-10-05T05:50:45.600Z,13.25
2022-10-05T05:51:54.488Z,8.63
2022-10-05T05:52:59.549Z,8.63
2022-10-05T05:54:01.354Z,9.35
2022-10-05T05:55:16.304Z,8.50
2022-10-05T05:56:16.103Z,8.05
2022-10-05T05:57:21.861Z,9.65
2022-10-05T05:58:40.064Z,8.63
2022-10-05T05:59:51.784Z,8.20
2022-10-05T06:01:03.440Z,9.45
2022-10-05T06:02:08.420Z,8.18
2022-10-05T06:03:24.823Z,9.27
2022-10-05T06:04:31.948Z,7.45
2022-10-05T06:05:49.869Z,7.18
2022-10-05T06:06:52.647Z,7.47
2022-10-05T06:07:52.215Z,10.25
2022-10-05T06:08:56.883Z,9.13
2022-10-05T06:09:59.955Z,6.50
2022-10-05T06:11:05.497Z,7.15
2022-10-05T06:12:12.107Z,10.10
2022-10-05T06:13:20.650Z,5.75
2022-10-05T06:14:35.490Z,7.28
2022-10-05T06:15:48.613Z,7.15
2022-10-05T06:17:50.234Z,4.90
2022-10-05T06:18:52.107Z,6.88
2022-10-05T06:19:52.788Z,7.85
2022-10-05T06:20:57.078Z,6.90
2022-10-05T06:22:05.695Z,6.35
2022-10-05T06:23:07.439Z,4.32
2022-10-05T06:24:16.865Z,4.28
2022-10-05T06:25:13.377Z,5.97
2022-10-05T06:26:15.925Z,3.88
2022-10-05T06:27:24.534Z,7.00
2022-10-05T06:28:21.420Z,3.90
2022-10-05T06:29:23.926Z,4.43
2022-10-05T06:31:26.828Z,3.83
2022-10-05T06:32:50.498Z,3.83
2022-10-05T06:34:25.328Z,8.52
2022-10-05T06:35:52.564Z,4.28
2022-10-05T06:36:57.674Z,9.18
2022-10-05T06:38:04.721Z,3.25
2022-10-05T06:39:32.137Z,3.88
2022-10-05T06:40:49.935Z,3.42
2022-10-05T06:42:10.911Z,4.95
2022-10-05T06:43:28.953Z,4.03
2022-10-05T06:44:49.217Z,4.25
2022-10-05T06:45:59.937Z,5.35
2022-10-05T06:47:08.531Z,4.78
2022-10-05T06:48:20.024Z,3.20
2022-10-05T06:49:29.463Z,4.10
2022-10-05T06:50:47.097Z,3.13
2022-10-05T06:51:54.691Z,3.97
2022-10-05T06:53:03.360Z,3.78
2022-10-05T06:54:24.696Z,3.33
2022-10-05T06:55:24.290Z,4.55
2022-10-05T06:56:31.379Z,4.15
2022-10-05T06:57:46.070Z,4.75
2022-10-05T06:59:06.581Z,4.75
2022-10-05T07:00:20.417Z,6.38
2022-10-05T07:01:36.417Z,4.90
2022-10-05T07:02:52.871Z,3.90
2022-10-05T07:03:55.553Z,4.28
2022-10-05T07:05:10.137Z,3.78
2022-10-05T07:06:25.545Z,3.20
2022-10-05T07:07:51.889Z,4.78
2022-10-05T07:09:02.995Z,4.53
2022-10-05T07:10:42.532Z,4.07
2022-10-05T07:12:07.729Z,6.45
2022-10-05T07:13:38.605Z,4.75
2022-10-05T07:14:40.850Z,3.78
2022-10-05T07:16:19.241Z,9.23
2022-10-05T07:17:24.749Z,8.63
2022-10-05T07:18:47.647Z,5.72
2022-10-05T07:19:44.183Z,4.73
2022-10-05T07:20:48.238Z,3.60
2022-10-05T07:22:00.738Z,3.97
2022-10-05T07:23:25.094Z,3.65
2022-10-05T07:24:29.321Z,5.28
2022-10-05T07:25:41.887Z,3.97
2022-10-05T07:26:49.124Z,4.78
2022-10-05T07:28:05.628Z,4.72
2022-10-05T07:29:14.318Z,5.93
2022-10-05T07:30:13.708Z,5.57
2022-10-05T07:31:40.012Z,4.55
2022-10-05T07:32:45.788Z,3.33
2022-10-05T07:34:09.550Z,5.75
2022-10-05T07:36:54.645Z,4.00
2022-10-05T07:37:55.732Z,4.75
2022-10-05T07:39:01.225Z,4.20
2022-10-05T07:40:15.205Z,5.47
2022-10-05T07:41:21.430Z,4.97
2022-10-05T07:42:27.074Z,5.38
2022-10-05T07:43:51.456Z,3.50
2022-10-05T07:44:54.537Z,6.30
2022-10-05T07:46:04.731Z,5.32
2022-10-05T07:47:15.443Z,3.78
2022-10-05T07:48:22.583Z,4.90
2022-10-05T07:49:39.385Z,4.20
2022-10-05T07:50:47.142Z,6.97
2022-10-05T07:51:55.682Z,5.78
2022-10-05T07:53:05.290Z,7.13
2022-10-05T07:54:07.946Z,5.20
2022-10-05T07:55:25.300Z,3.17
2022-10-05T07:56:29.628Z,3.72
2022-10-05T07:57:53.731Z,3.33
2022-10-05T07:59:04.441Z,3.80
2022-10-05T08:00:11.492Z,5.20
2022-10-05T08:01:20.890Z,5.00
2022-10-05T08:02:26.807Z,4.35
2022-10-05T08:03:34.921Z,3.35
2022-10-05T08:04:41.985Z,3.65
2022-10-05T08:05:42.370Z,4.75
2022-10-05T08:07:04.964Z,5.18
2022-10-05T08:08:14.264Z,3.40
2022-10-05T08:09:35.224Z,5.03
2022-10-05T08:10:59.928Z,5.80
2022-10-05T08:12:26.936Z,2.50
2022-10-05T08:13:29.136Z,4.78
2022-10-05T08:14:35.004Z,3.65
2022-10-05T08:15:55.485Z,6.88
2022-10-05T08:16:55.419Z,4.20
2022-10-05T08:18:10.148Z,4.55
2022-10-05T08:19:35.621Z,3.05
2022-10-05T08:20:41.367Z,4.03
2022-10-05T08:22:04.439Z,4.55
2022-10-05T08:23:21.077Z,3.92
2022-10-05T08:24:38.546Z,4.65
2022-10-05T08:25:47.084Z,5.43
2022-10-05T08:27:02.765Z,4.38
2022-10-05T08:28:08.635Z,3.25
2022-10-05T08:29:05.207Z,3.53
2022-10-05T08:30:06.392Z,4.35
2022-10-05T08:31:06.097Z,6.43
2022-10-05T08:32:09.359Z,4.03
2022-10-05T08:33:13.365Z,3.92
2022-10-05T08:34:54.496Z,5.97
2022-10-05T08:36:13.760Z,4.82
2022-10-05T08:37:19.015Z,3.33
2022-10-05T08:38:25.299Z,6.28
2022-10-05T08:39:24.784Z,5.10
2022-10-05T08:40:58.819Z,5.68
2022-10-05T08:42:43.570Z,7.35
2022-10-05T08:43:43.133Z,4.60
2022-10-05T08:44:48.565Z,5.93
2022-10-05T08:46:06.817Z,4.22
2022-10-05T08:47:36.235Z,8.57
2022-10-05T08:49:04.969Z,3.22
2022-10-05T08:50:25.359Z,4.38
2022-10-05T08:51:48.615Z,6.93
2022-10-05T08:53:16.119Z,1.92
2022-10-05T08:54:13.334Z,4.05
2022-10-05T08:55:09.858Z,4.50
2022-10-05T08:56:26.361Z,5.05
2022-10-05T08:57:46.745Z,3.15
2022-10-05T08:58:59.097Z,4.78
2022-10-05T08:59:58.582Z,2.40
2022-10-05T09:01:06.430Z,4.38
2022-10-05T09:02:10.161Z,3.50
2022-10-05T09:03:37.891Z,2.63
2022-10-05T09:04:58.217Z,2.95
2022-10-05T09:06:18.940Z,3.70
2022-10-05T09:07:40.246Z,4.28
2022-10-05T09:08:42.909Z,6.97
2022-10-05T09:10:07.498Z,2.78
2022-10-05T09:11:12.093Z,3.95
2022-10-05T09:12:14.765Z,2.70
2022-10-05T09:13:24.351Z,6.32
2022-10-05T09:14:20.914Z,4.47
2022-10-05T09:15:30.711Z,3.47
2022-10-05T09:17:00.900Z,5.68
2022-10-05T09:18:33.787Z,2.28
2022-10-05T09:19:43.164Z,3.15
2022-10-05T09:20:55.205Z,3.08
2022-10-05T09:22:10.740Z,3.45
2022-10-05T09:23:43.676Z,3.08
2022-10-05T09:24:52.338Z,3.80
2022-10-05T09:25:51.858Z,4.82
2022-10-05T09:26:51.377Z,2.65
2022-10-05T09:28:20.570Z,4.20
2022-10-05T09:29:26.504Z,7.40
2022-10-05T09:30:58.521Z,4.32
2022-10-05T09:32:42.111Z,2.22
2022-10-05T09:33:57.069Z,2.60
2022-10-05T09:35:18.681Z,3.03
2022-10-05T09:36:27.469Z,3.40
2022-10-05T09:37:36.890Z,1.88
2022-10-05T09:38:46.512Z,2.55
2022-10-05T09:39:48.978Z,1.65
2022-10-05T09:41:04.656Z,2.65
2022-10-05T09:42:17.539Z,2.38
2022-10-05T09:43:47.286Z,2.33
2022-10-05T09:44:49.908Z,3.22
2022-10-05T09:47:12.272Z,2.00
2022-10-05T09:48:14.853Z,3.30
2022-10-05T09:50:38.439Z,3.42
2022-10-05T09:51:37.828Z,3.92
2022-10-05T09:52:49.115Z,3.90
2022-10-05T09:54:19.792Z,1.63
2022-10-05T09:56:10.435Z,4.00
2022-10-05T09:57:25.383Z,2.17
2022-10-05T09:58:34.089Z,2.67
2022-10-05T09:59:47.658Z,4.20
2022-10-05T10:01:09.009Z,2.47
2022-10-05T10:02:27.811Z,6.03
2022-10-05T10:03:43.115Z,2.95
2022-10-05T10:04:40.150Z,6.88
2022-10-05T10:05:57.519Z,2.17
2022-10-05T10:07:32.287Z,2.47
2022-10-05T10:08:42.212Z,1.55
2022-10-05T10:09:56.951Z,2.58
2022-10-05T10:11:27.917Z,1.08
2022-10-05T10:12:36.680Z,3.13
2022-10-05T10:13:56.478Z,2.47
2022-10-05T10:15:24.290Z,2.58
2022-10-05T10:16:29.934Z,2.20
2022-10-05T10:17:43.565Z,4.43
2022-10-05T10:18:53.118Z,2.75
2022-10-05T10:20:04.100Z,2.03
2022-10-05T10:21:16.952Z,2.75
2022-10-05T10:22:52.990Z,3.70
2022-10-05T10:24:08.505Z,3.63
2022-10-05T10:25:34.798Z,2.78
2022-10-05T10:26:50.674Z,1.08
2022-10-05T10:28:09.039Z,2.33
2022-10-05T10:29:17.735Z,2.47
2022-10-05T10:30:40.457Z,1.35
2022-10-05T10:32:20.616Z,1.20
2022-10-05T10:33:42.239Z,2.35
2022-10-05T10:34:57.571Z,4.18
2022-10-05T10:36:13.132Z,4.60
2022-10-05T10:37:27.647Z,2.42
2022-10-05T10:38:47.266Z,1.52
2022-10-05T10:40:08.790Z,1.40
2022-10-05T10:41:05.412Z,1.67
2022-10-05T10:42:11.018Z,1.10
2022-10-05T10:43:16.553Z,1.45
2022-10-05T10:44:38.148Z,2.67
2022-10-05T10:45:49.918Z,0.80
2022-10-05T10:47:07.950Z,1.17
2022-10-05T10:48:11.403Z,0.90
2022-10-05T10:49:22.081Z,2.08
2022-10-05T10:50:40.156Z,1.60
2022-10-05T10:51:58.089Z,1.92
2022-10-05T10:53:10.447Z,2.10
2022-10-05T10:54:27.367Z,2.38
2022-10-05T10:55:51.993Z,0.93
2022-10-05T10:57:05.525Z,1.70
2022-10-05T10:58:26.252Z,1.33
2022-10-05T10:59:40.120Z,0.80
2022-10-05T11:00:57.838Z,0.98
2022-10-05T11:02:20.699Z,1.70
2022-10-05T11:03:26.376Z,1.73
2022-10-05T11:05:01.657Z,1.80
2022-10-05T11:06:21.285Z,4.50
2022-10-05T11:07:30.484Z,4.00
2022-10-05T11:08:27.011Z,1.20
2022-10-05T11:10:02.004Z,1.23
2022-10-05T11:11:23.571Z,1.80
2022-10-05T11:12:45.150Z,1.25
2022-10-05T11:14:06.372Z,2.83
2022-10-05T11:15:36.501Z,2.00
2022-10-05T11:16:38.917Z,1.60
2022-10-05T11:17:41.282Z,1.50
2022-10-05T11:19:13.401Z,1.10
2022-10-05T11:20:25.297Z,1.05
2022-10-05T11:21:33.904Z,0.95
2022-10-05T11:22:51.755Z,1.48
2022-10-05T11:24:00.287Z,1.73
2022-10-05T11:25:35.928Z,0.90
2022-10-05T11:27:08.379Z,2.58
2022-10-05T11:28:14.325Z,1.30
2022-10-05T11:30:02.242Z,0.63
2022-10-05T11:31:31.142Z,0.63
2022-10-05T11:33:04.181Z,0.88
2022-10-05T11:34:37.926Z,1.65
2022-10-05T11:35:55.927Z,1.77
2022-10-05T11:37:29.820Z,1.15
2022-10-05T11:38:32.302Z,0.70
2022-10-05T11:40:36.392Z,1.88
2022-10-05T11:42:12.047Z,2.67
2022-10-05T11:43:30.131Z,1.52
2022-10-05T11:45:06.194Z,1.38
2022-10-05T11:46:46.092Z,3.83
2022-10-05T11:48:03.818Z,2.53
2022-10-05T11:49:16.760Z,3.47
2022-10-05T11:50:27.084Z,0.85
2022-10-05T11:51:37.457Z,0.75
2022-10-05T11:52:47.703Z,0.80
2022-10-05T11:54:20.741Z,1.00
2022-10-05T11:55:42.900Z,2.47
2022-10-05T11:56:44.935Z,1.30
2022-10-05T11:57:56.532Z,3.03
2022-10-05T11:59:08.250Z,0.80
2022-10-05T12:00:19.142Z,0.90
2022-10-05T12:01:23.632Z,3.88
2022-10-05T12:02:36.910Z,1.33
2022-10-05T12:03:55.925Z,4.38
2022-10-05T12:05:03.550Z,0.60
2022-10-05T12:06:28.200Z,0.60
2022-10-05T12:07:47.726Z,1.58
2022-10-05T12:08:44.352Z,1.27
2022-10-05T12:10:11.835Z,2.22
2022-10-05T12:11:29.315Z,2.60
2022-10-05T12:12:30.929Z,1.05
2022-10-05T12:13:38.785Z,1.10
2022-10-05T12:14:44.939Z,1.13
2022-10-05T12:15:57.605Z,1.80
2022-10-05T12:17:00.170Z,0.80
2022-10-05T12:19:08.833Z,0.80
2022-10-05T12:20:14.216Z,1.05
2022-10-05T12:21:22.982Z,1.90
2022-10-05T12:22:33.892Z,3.90
2022-10-05T12:23:53.806Z,1.85
2022-10-05T12:25:19.230Z,1.02
2022-10-05T12:26:24.438Z,1.08
2022-10-05T12:27:25.347Z,0.88
2022-10-05T12:28:43.457Z,0.70
2022-10-05T12:30:03.456Z,2.67
2022-10-05T12:31:46.347Z,1.90
2022-10-05T12:33:01.834Z,2.58
2022-10-05T12:34:40.463Z,1.60
2022-10-05T12:35:48.203Z,1.88
2022-10-05T12:37:04.385Z,2.38
2022-10-05T12:38:08.119Z,1.35
2022-10-05T12:39:07.716Z,1.67
2022-10-05T12:40:35.009Z,2.05
2022-10-05T12:41:37.813Z,2.72
2022-10-05T12:42:56.259Z,1.55
2022-10-05T12:44:21.586Z,0.93
2022-10-05T12:45:24.398Z,3.35
2022-10-05T12:46:30.038Z,1.08
2022-10-05T12:47:42.019Z,1.02
2022-10-05T12:49:00.163Z,1.60
2022-10-05T12:50:13.126Z,2.80
2022-10-05T12:52:31.567Z,0.70
2022-10-05T12:54:06.499Z,0.90
2022-10-05T12:55:18.757Z,1.20
2022-10-05T12:56:33.863Z,1.17
2022-10-05T12:57:45.730Z,1.05
2022-10-05T12:59:04.663Z,1.65
2022-10-05T13:00:06.005Z,1.52
2022-10-05T13:01:14.923Z,1.75
2022-10-05T13:02:34.668Z,1.27
2022-10-05T13:03:38.110Z,0.88
2022-10-05T13:04:51.600Z,1.13
2022-10-05T13:06:28.725Z,1.33
2022-10-05T13:07:43.466Z,1.67
2022-10-05T13:08:55.764Z,1.45
2022-10-05T13:10:13.985Z,0.80
2022-10-05T13:11:37.641Z,1.80
2022-10-05T13:13:50.615Z,1.33
2022-10-05T13:14:55.475Z,0.57
2022-10-05T13:16:09.456Z,2.40
2022-10-05T13:17:31.079Z,1.55
2022-10-05T13:18:27.599Z,4.28
2022-10-05T13:19:29.776Z,1.05
2022-10-05T13:20:40.499Z,1.02
2022-10-05T13:21:46.001Z,0.60
2022-10-05T13:22:58.939Z,0.85
2022-10-05T13:24:01.627Z,0.93
2022-10-05T13:25:40.402Z,2.28
2022-10-05T13:26:41.053Z,0.60
2022-10-05T13:27:45.262Z,1.42
2022-10-05T13:28:52.562Z,0.70
2022-10-05T13:30:02.225Z,0.75
2022-10-05T13:31:16.040Z,1.45
2022-10-05T13:32:25.780Z,1.73
2022-10-05T13:33:49.466Z,1.30
2022-10-05T13:36:00.594Z,0.98
2022-10-05T13:37:06.492Z,1.25
2022-10-05T13:38:34.488Z,0.70
2022-10-05T13:39:46.487Z,1.70
2022-10-05T13:40:58.163Z,1.55
2022-10-05T13:42:05.212Z,1.35
2022-10-05T13:43:28.249Z,1.95
2022-10-05T13:44:34.405Z,2.88
2022-10-05T13:46:04.478Z,1.15
2022-10-05T13:47:05.430Z,1.95
2022-10-05T13:48:14.039Z,1.45
2022-10-05T13:49:13.629Z,2.92
2022-10-05T13:50:26.603Z,0.98
2022-10-05T13:51:36.450Z,1.33
2022-10-05T13:52:54.363Z,0.88
2022-10-05T13:54:27.120Z,3.00
2022-10-05T13:56:00.088Z,1.63
2022-10-05T13:57:07.962Z,0.80
2022-10-05T13:58:13.861Z,2.22
2022-10-05T13:59:32.233Z,1.17
2022-10-05T14:00:30.442Z,0.90
2022-10-05T14:01:43.962Z,1.77
2022-10-05T14:02:43.771Z,1.58
2022-10-05T14:03:40.347Z,1.08
2022-10-05T14:04:50.934Z,2.60
2022-10-05T14:05:56.413Z,2.28
2022-10-05T14:06:53.224Z,0.95
2022-10-05T14:07:55.752Z,3.15
2022-10-05T14:09:50.222Z,2.42
2022-10-05T14:10:48.064Z,2.80
2022-10-05T14:11:55.248Z,1.35
2022-10-05T14:12:55.279Z,0.80
2022-10-05T14:14:01.082Z,1.23
2022-10-05T14:14:58.985Z,7.07
2022-10-05T14:16:21.167Z,2.28
2022-10-05T14:17:33.795Z,3.40
2022-10-05T14:18:32.919Z,0.90
2022-10-05T14:19:41.527Z,1.77
2022-10-05T14:20:38.122Z,2.63
2022-10-05T14:22:02.177Z,2.13
2022-10-05T14:23:25.483Z,3.70
2022-10-05T14:24:43.831Z,0.98
2022-10-05T14:25:53.743Z,1.67
2022-10-05T14:26:53.385Z,0.82
2022-10-05T14:27:58.811Z,1.67
2022-10-05T14:29:15.271Z,1.98
2022-10-05T14:30:19.755Z,0.80
2022-10-05T14:31:28.730Z,0.95
2022-10-05T14:32:29.762Z,1.50
2022-10-05T14:33:29.758Z,1.30
2022-10-05T14:34:42.007Z,1.95
2022-10-05T14:35:53.405Z,0.60
2022-10-05T14:36:56.063Z,0.93
2022-10-05T14:38:02.276Z,1.15
2022-10-05T14:39:02.098Z,1.25
2022-10-05T14:40:20.790Z,1.65
2022-10-05T14:41:21.911Z,0.95
2022-10-05T14:42:18.490Z,0.52
2022-10-05T14:43:17.344Z,0.82
2022-10-05T14:44:13.873Z,1.35
2022-10-05T14:45:17.710Z,3.05
2022-10-05T14:46:18.795Z,0.65
2022-10-05T14:47:22.893Z,1.85
2022-10-05T14:48:19.498Z,0.80
2022-10-05T14:49:24.289Z,1.27
2022-10-05T14:50:26.349Z,1.55
2022-10-05T14:51:31.973Z,2.15
2022-10-05T14:52:32.924Z,1.45
2022-10-05T14:53:45.732Z,1.10
2022-10-05T14:55:00.927Z,0.75
2022-10-05T14:56:33.148Z,0.50
2022-10-05T14:57:58.356Z,1.00
2022-10-05T14:59:14.113Z,2.90
2022-10-05T15:00:19.686Z,1.60
2022-10-05T15:01:28.277Z,3.55
2022-10-05T15:02:54.473Z,0.77
2022-10-05T15:04:06.741Z,1.52
2022-10-05T15:05:37.150Z,0.87
2022-10-05T15:06:42.507Z,0.85
2022-10-05T15:07:44.739Z,1.15
2022-10-05T15:08:41.549Z,1.55
2022-10-05T15:10:00.066Z,4.38
2022-10-05T15:11:16.622Z,1.33
2022-10-05T15:12:39.787Z,1.38
2022-10-05T15:13:41.667Z,4.82
2022-10-05T15:14:44.835Z,1.33
2022-10-05T15:15:59.808Z,2.83
2022-10-05T15:17:03.284Z,2.60
2022-10-05T15:18:15.962Z,1.83
2022-10-05T15:19:29.037Z,2.15
2022-10-05T15:21:42.377Z,2.50
2022-10-05T15:23:14.560Z,2.55
2022-10-05T15:24:25.296Z,3.60
2022-10-05T15:25:27.855Z,1.55
2022-10-05T15:27:35.709Z,1.20
2022-10-05T15:28:48.669Z,3.08
2022-10-05T15:29:58.113Z,1.83
2022-10-05T15:31:02.700Z,2.85
2022-10-05T15:31:59.378Z,1.20
2022-10-05T15:33:12.765Z,5.88
2022-10-05T15:34:12.233Z,2.90
2022-10-05T15:35:36.775Z,1.55
2022-10-05T15:37:04.455Z,3.53
2022-10-05T15:38:21.436Z,1.75
2022-10-05T15:39:25.334Z,1.98
2022-10-05T15:40:33.623Z,2.47
2022-10-05T15:41:36.281Z,3.08
2022-10-05T15:42:38.372Z,1.67
2022-10-05T15:43:58.551Z,0.75
2022-10-05T15:45:23.563Z,1.45
2022-10-05T15:46:50.514Z,1.52
2022-10-05T15:47:51.891Z,2.20
2022-10-05T15:49:12.633Z,1.63
2022-10-05T15:50:29.713Z,0.93
2022-10-05T15:51:35.289Z,1.40
2022-10-05T15:52:46.556Z,1.20
2022-10-05T15:54:36.329Z,1.38
2022-10-05T15:55:35.684Z,1.10
2022-10-05T15:56:38.781Z,1.50
2022-10-05T15:58:18.865Z,0.93
2022-10-05T15:59:26.482Z,1.45
2022-10-05T16:00:25.528Z,3.22
2022-10-05T16:01:28.429Z,1.17
2022-10-05T16:02:40.923Z,3.08
2022-10-05T16:04:01.621Z,3.83
2022-10-05T16:05:16.466Z,3.85
2022-10-05T16:06:55.699Z,1.02
2022-10-05T16:08:12.614Z,3.30
2022-10-05T16:09:41.155Z,2.75
2022-10-05T16:10:44.021Z,1.77
2022-10-05T16:12:07.163Z,3.30
2022-10-05T16:13:25.745Z,2.92